Time;durP1;ratioP1;P1;durP2;ratioP2;P2;SDS_P1;SDS_P2;PMS_P1;PMS_P2;Temp;Humidity;BMP_temperature;BMP_pressure;BME280_temperature;BME280_humidity;BME280_pressure;Samples;Min_cycle;Max_cycle;Signal;HPM_P1;HPM_P2
2023/07/16 00:00:46;;;;;;;7.57;2.50;;;;;;;-145.41;100.00;58600.66;5002169;28;20049;-76
2023/07/16 00:03:13;;;;;;;4.03;2.28;;;;;;;-145.41;100.00;58600.66;5001508;28;20032;-76
2023/07/16 00:05:39;;;;;;;6.05;3.22;;;;;;;-145.41;100.00;58600.66;5005566;28;20038;-76
2023/07/16 00:08:04;;;;;;;3.92;2.70;;;;;;;-145.41;100.00;58600.66;5003582;28;20497;-76
2023/07/16 00:10:34;;;;;;;5.25;2.55;;;;;;;-145.41;100.00;58600.66;5002023;28;20034;-76
2023/07/16 00:12:59;;;;;;;5.32;2.70;;;;;;;-145.41;100.00;58600.66;5001459;28;20544;-76
2023/07/16 00:15:25;;;;;;;7.22;2.67;;;;;;;-145.41;100.00;58600.66;5004090;28;20169;-76
2023/07/16 00:17:50;;;;;;;5.25;3.03;;;;;;;-145.41;100.00;58600.66;5005116;28;20109;-76
2023/07/16 00:20:15;;;;;;;3.50;2.25;;;;;;;-145.41;100.00;58600.66;4999779;28;20055;-76
2023/07/16 00:22:41;;;;;;;6.80;2.80;;;;;;;-145.41;100.00;58600.66;5004840;28;20038;-76
2023/07/16 00:25:06;;;;;;;5.13;2.47;;;;;;;-145.41;100.00;58600.66;5000459;28;20040;-76
2023/07/16 00:27:32;;;;;;;4.72;2.78;;;;;;;-145.41;100.00;58600.66;4999598;28;20041;-76
2023/07/16 00:29:57;;;;;;;4.10;2.22;;;;;;;-145.41;100.00;58600.66;4996963;28;20358;-76
2023/07/16 00:32:23;;;;;;;5.40;2.40;;;;;;;-145.41;100.00;58600.66;4998044;28;20501;-76
2023/07/16 00:34:48;;;;;;;5.20;2.38;;;;;;;-145.41;100.00;58600.66;5006691;28;20557;-76
2023/07/16 00:37:14;;;;;;;5.57;2.28;;;;;;;-145.41;100.00;58600.66;5007218;28;20026;-76
2023/07/16 00:39:39;;;;;;;5.55;2.10;;;;;;;-145.41;100.00;58600.66;5003110;28;20109;-76
2023/07/16 00:42:05;;;;;;;5.00;2.42;;;;;;;-145.41;100.00;58600.66;5008007;28;20033;-75
2023/07/16 00:44:30;;;;;;;6.25;2.58;;;;;;;-145.41;100.00;58600.66;4997894;28;20424;-76
2023/07/16 00:46:56;;;;;;;4.25;2.15;;;;;;;-145.41;100.00;58600.66;4997685;28;20060;-76
2023/07/16 00:49:23;;;;;;;4.85;2.60;;;;;;;-145.41;100.00;58600.66;4997100;28;20061;-76
2023/07/16 00:51:50;;;;;;;6.25;2.30;;;;;;;-145.41;100.00;58600.66;4996179;28;20050;-76
2023/07/16 00:54:15;;;;;;;4.75;2.55;;;;;;;-145.41;100.00;58600.66;4987197;28;20035;-78
2023/07/16 00:56:41;;;;;;;12.00;2.72;;;;;;;-145.41;100.00;58600.66;5002563;28;20037;-77
2023/07/16 00:59:06;;;;;;;3.83;2.53;;;;;;;-145.41;100.00;58600.66;5001280;28;20042;-79
2023/07/16 01:01:32;;;;;;;5.45;2.40;;;;;;;-145.41;100.00;58600.66;5002702;28;20030;-76
2023/07/16 01:03:58;;;;;;;5.78;2.40;;;;;;;-145.41;100.00;58600.66;4998855;28;20073;-78
2023/07/16 01:06:42;;;;;;;4.32;2.33;;;;;;;-145.41;100.00;58600.66;5001391;28;20038;-77
2023/07/16 01:09:14;;;;;;;4.70;2.20;;;;;;;-145.41;100.00;58600.66;4997034;28;20329;-78
2023/07/16 01:11:42;;;;;;;4.80;1.80;;;;;;;-145.41;100.00;58600.66;4998589;28;20038;-78
2023/07/16 01:14:08;;;;;;;5.47;2.35;;;;;;;-145.41;100.00;58600.66;5005994;28;20037;-75
2023/07/16 01:16:33;;;;;;;3.40;2.03;;;;;;;-145.41;100.00;58600.66;5001239;28;20034;-78
2023/07/16 01:18:58;;;;;;;5.63;1.98;;;;;;;-145.41;100.00;58600.66;5004342;28;20512;-76
2023/07/16 01:21:28;;;;;;;4.63;2.30;;;;;;;-145.41;100.00;58600.66;4994376;28;20408;-75
2023/07/16 01:24:23;;;;;;;5.90;2.20;;;;;;;-145.41;100.00;58600.66;5002402;28;20030;-75
2023/07/16 01:27:17;;;;;;;3.10;1.80;;;;;;;-145.41;100.00;58600.66;4998678;28;20520;-77
2023/07/16 01:29:50;;;;;;;5.90;2.13;;;;;;;-145.41;100.00;58600.66;4989416;28;20074;-77
2023/07/16 01:32:16;;;;;;;4.68;1.50;;;;;;;-145.41;100.00;58600.66;5005181;28;20036;-78
2023/07/16 01:34:43;;;;;;;5.68;2.13;;;;;;;-145.41;100.00;58600.66;5005831;28;20052;-75
2023/07/16 01:37:08;;;;;;;6.30;2.05;;;;;;;-145.41;100.00;58600.66;4991805;28;20101;-75
2023/07/16 01:39:34;;;;;;;3.45;1.60;;;;;;;-145.41;100.00;58600.66;4994748;28;20035;-75
2023/07/16 01:42:00;;;;;;;4.82;1.63;;;;;;;-145.41;100.00;58600.66;5004007;28;20073;-76
2023/07/16 01:44:25;;;;;;;3.40;1.48;;;;;;;-145.41;100.00;58600.66;5001429;28;20121;-76
2023/07/16 01:47:06;;;;;;;3.03;1.80;;;;;;;-145.41;100.00;58600.66;4997871;28;20424;-78
2023/07/16 01:49:32;;;;;;;4.50;2.08;;;;;;;-145.41;100.00;58600.66;4999125;28;20034;-78
2023/07/16 01:51:57;;;;;;;3.47;1.77;;;;;;;-145.41;100.00;58600.66;4999573;28;20057;-78
2023/07/16 01:54:23;;;;;;;3.15;1.67;;;;;;;-145.41;100.00;58600.66;5004710;28;20029;-78
2023/07/16 01:56:49;;;;;;;6.13;2.38;;;;;;;-145.41;100.00;58600.66;4997274;28;20034;-79
2023/07/16 01:59:15;;;;;;;4.38;1.80;;;;;;;-145.41;100.00;58600.66;5007934;28;20033;-79
2023/07/16 02:01:40;;;;;;;4.90;2.05;;;;;;;-145.41;100.00;58600.66;5002546;28;20485;-78
2023/07/16 02:04:06;;;;;;;3.17;1.98;;;;;;;-145.41;100.00;58600.66;4997200;28;20049;-79
2023/07/16 02:06:33;;;;;;;3.67;1.73;;;;;;;-145.41;100.00;58600.66;5000469;28;20512;-79
2023/07/16 02:08:58;;;;;;;3.53;1.88;;;;;;;-145.41;100.00;58600.66;5005925;28;20115;-79
2023/07/16 02:11:24;;;;;;;4.20;2.42;;;;;;;-145.41;100.00;58600.66;5000682;28;20042;-79
2023/07/16 02:13:50;;;;;;;3.65;1.90;;;;;;;-145.41;100.00;58600.66;4996005;28;20031;-79
2023/07/16 02:16:15;;;;;;;6.05;2.42;;;;;;;-145.41;100.00;58600.66;4997044;28;20026;-79
2023/07/16 02:18:40;;;;;;;4.15;1.85;;;;;;;-145.41;100.00;58600.66;4992782;28;20029;-79
2023/07/16 02:21:05;;;;;;;5.38;2.10;;;;;;;-145.41;100.00;58600.66;4993800;28;20030;-79
2023/07/16 02:23:31;;;;;;;3.92;2.00;;;;;;;-145.41;100.00;58600.66;5001527;28;20092;-79
2023/07/16 02:25:56;;;;;;;4.43;2.17;;;;;;;-145.41;100.00;58600.66;4998968;28;20045;-79
2023/07/16 02:28:22;;;;;;;4.80;2.10;;;;;;;-145.41;100.00;58600.66;5001116;28;20034;-79
2023/07/16 02:30:49;;;;;;;4.22;2.10;;;;;;;-145.41;100.00;58600.66;5002069;28;20048;-79
2023/07/16 02:33:15;;;;;;;3.33;1.80;;;;;;;-145.41;100.00;58600.66;5005172;28;20409;-79
2023/07/16 02:35:40;;;;;;;6.10;2.00;;;;;;;-145.41;100.00;58600.66;5007611;28;20042;-78
2023/07/16 02:38:05;;;;;;;4.35;2.03;;;;;;;-145.41;100.00;58600.66;5005326;28;20040;-79
2023/07/16 02:40:31;;;;;;;4.88;2.17;;;;;;;-145.41;100.00;58600.66;5007715;28;20039;-78
2023/07/16 02:42:56;;;;;;;4.10;2.35;;;;;;;-145.41;100.00;58600.66;5002082;28;20046;-78
2023/07/16 02:45:21;;;;;;;4.78;2.30;;;;;;;-145.41;100.00;58600.66;5003855;28;20046;-78
2023/07/16 02:47:47;;;;;;;5.38;2.22;;;;;;;-145.41;100.00;58600.66;5003070;28;20049;-78
2023/07/16 02:50:15;;;;;;;3.03;1.85;;;;;;;-145.41;100.00;58600.66;5004140;28;20542;-78
2023/07/16 02:52:40;;;;;;;5.47;1.60;;;;;;;-145.41;100.00;58600.66;5008358;28;20123;-79
2023/07/16 02:55:06;;;;;;;3.83;1.75;;;;;;;-145.41;100.00;58600.66;5004396;28;20041;-79
2023/07/16 02:57:31;;;;;;;4.43;2.05;;;;;;;-145.41;100.00;58600.66;5010984;28;20048;-78
2023/07/16 02:59:56;;;;;;;4.25;1.63;;;;;;;-145.41;100.00;58600.66;5005217;28;20040;-79
2023/07/16 03:02:22;;;;;;;4.88;1.67;;;;;;;-145.41;100.00;58600.66;5002627;28;20034;-78
2023/07/16 03:04:49;;;;;;;4.18;1.80;;;;;;;-145.41;100.00;58600.66;4998419;28;20054;-78
2023/07/16 03:07:14;;;;;;;3.70;2.05;;;;;;;-145.41;100.00;58600.66;5006148;28;20058;-78
2023/07/16 03:09:39;;;;;;;3.63;1.85;;;;;;;-145.41;100.00;58600.66;5002730;28;20021;-78
2023/07/16 03:12:05;;;;;;;5.05;1.83;;;;;;;-145.41;100.00;58600.66;4999345;28;20050;-78
2023/07/16 03:14:30;;;;;;;5.07;1.63;;;;;;;-145.41;100.00;58600.66;5001409;28;20125;-79
2023/07/16 03:16:56;;;;;;;5.05;1.92;;;;;;;-145.41;100.00;58600.66;4994222;28;20471;-79
2023/07/16 03:19:21;;;;;;;4.18;1.80;;;;;;;-145.41;100.00;58600.66;4999414;28;20026;-79
2023/07/16 03:21:48;;;;;;;3.70;2.00;;;;;;;-145.41;100.00;58600.66;4994601;28;20084;-78
2023/07/16 03:24:14;;;;;;;4.72;1.90;;;;;;;-145.41;100.00;58600.66;4997001;28;20405;-79
2023/07/16 03:26:39;;;;;;;4.63;1.80;;;;;;;-145.41;100.00;58600.66;5004757;28;20065;-79
2023/07/16 03:29:05;;;;;;;3.35;1.77;;;;;;;-145.41;100.00;58600.66;5000734;28;20508;-79
2023/07/16 03:31:31;;;;;;;6.35;1.80;;;;;;;-145.41;100.00;58600.66;5001394;28;20037;-79
2023/07/16 03:33:56;;;;;;;8.45;1.75;;;;;;;-145.41;100.00;58600.66;5006558;28;20050;-79
2023/07/16 03:36:24;;;;;;;3.65;1.73;;;;;;;-145.41;100.00;58600.66;5005144;28;20112;-78
2023/07/16 03:38:49;;;;;;;5.30;2.08;;;;;;;-145.41;100.00;58600.66;5017168;22;20124;-80
2023/07/16 03:41:14;;;;;;;2.50;1.38;;;;;;;-145.41;100.00;58600.66;5002174;28;20042;-80
2023/07/16 03:43:40;;;;;;;3.53;1.50;;;;;;;-145.41;100.00;58600.66;5004213;28;20061;-80
2023/07/16 03:46:17;;;;;;;2.90;1.40;;;;;;;-145.41;100.00;58600.66;4990053;28;20030;-80
2023/07/16 03:48:42;;;;;;;3.53;1.23;;;;;;;-145.41;100.00;58600.66;4974153;28;20064;-80
2023/07/16 03:51:08;;;;;;;4.07;1.20;;;;;;;-145.41;100.00;58600.66;4985568;28;20026;-80
2023/07/16 03:53:33;;;;;;;3.40;1.45;;;;;;;-145.41;100.00;58600.66;4978638;28;20026;-80
2023/07/16 03:55:58;;;;;;;3.78;1.30;;;;;;;-145.41;100.00;58600.66;4975497;28;20341;-80
2023/07/16 03:58:24;;;;;;;2.83;1.13;;;;;;;-145.41;100.00;58600.66;5000791;28;20030;-80
2023/07/16 04:00:49;;;;;;;3.90;1.15;;;;;;;-145.41;100.00;58600.66;5000524;28;20096;-80
2023/07/16 04:03:14;;;;;;;3.38;1.15;;;;;;;-145.41;100.00;58600.66;4983893;28;20030;-80
2023/07/16 04:05:40;;;;;;;2.35;1.00;;;;;;;-145.41;100.00;58600.66;4982790;28;20409;-80
2023/07/16 04:08:05;;;;;;;3.58;0.98;;;;;;;-145.41;100.00;58600.66;4969689;28;20100;-80
2023/07/16 04:10:31;;;;;;;3.60;1.05;;;;;;;-145.41;100.00;58600.66;4975143;28;20039;-80
2023/07/16 04:12:56;;;;;;;1.70;0.93;;;;;;;-145.41;100.00;58600.66;4983348;28;20056;-80
2023/07/16 04:15:21;;;;;;;3.75;1.42;;;;;;;-145.41;100.00;58600.66;5000602;28;20041;-80
2023/07/16 04:17:47;;;;;;;3.30;1.00;;;;;;;-145.41;100.00;58600.66;5005484;28;20042;-80
2023/07/16 04:20:12;;;;;;;2.60;1.10;;;;;;;-145.41;100.00;58600.66;5000280;28;20035;-80
2023/07/16 04:22:38;;;;;;;4.72;1.05;;;;;;;-145.41;100.00;58600.66;4981870;28;20034;-80
2023/07/16 04:25:04;;;;;;;3.00;1.45;;;;;;;-145.41;100.00;58600.66;5000351;28;20397;-80
2023/07/16 04:27:29;;;;;;;3.92;1.30;;;;;;;-145.41;100.00;58600.66;4982330;28;20103;-80
2023/07/16 04:29:55;;;;;;;2.85;1.10;;;;;;;-145.41;100.00;58600.66;4998856;28;20078;-80
2023/07/16 04:32:21;;;;;;;2.17;1.05;;;;;;;-145.41;100.00;58600.66;4997168;28;20042;-80
2023/07/16 04:34:46;;;;;;;4.25;1.23;;;;;;;-145.41;100.00;58600.66;5003386;28;20026;-79
2023/07/16 04:37:12;;;;;;;3.00;1.33;;;;;;;-145.41;100.00;58600.66;5004281;28;20041;-79
2023/07/16 04:39:37;;;;;;;3.92;1.40;;;;;;;-145.41;100.00;58600.66;5000298;28;20051;-79
2023/07/16 04:42:03;;;;;;;3.58;1.38;;;;;;;-145.41;100.00;58600.66;5001325;28;20068;-80
2023/07/16 04:44:28;;;;;;;3.17;1.08;;;;;;;-145.41;100.00;58600.66;4987992;28;20038;-79
2023/07/16 04:46:53;;;;;;;2.95;1.40;;;;;;;-145.41;100.00;58600.66;4999008;28;20080;-79
2023/07/16 04:49:19;;;;;;;3.40;1.13;;;;;;;-145.41;100.00;58600.66;5003243;28;20034;-79
2023/07/16 04:51:44;;;;;;;3.20;1.58;;;;;;;-145.41;100.00;58600.66;5006796;28;20171;-80
2023/07/16 04:54:09;;;;;;;2.78;1.30;;;;;;;-145.41;100.00;58600.66;4999507;28;20038;-79
2023/07/16 04:56:35;;;;;;;3.22;1.38;;;;;;;-145.41;100.00;58600.66;5006077;28;20452;-79
2023/07/16 04:59:00;;;;;;;2.95;1.42;;;;;;;-145.41;100.00;58600.66;4981623;28;20034;-79
2023/07/16 05:01:26;;;;;;;3.90;1.23;;;;;;;-145.41;100.00;58600.66;4981027;28;20540;-79
2023/07/16 05:03:52;;;;;;;2.47;1.20;;;;;;;-145.41;100.00;58600.66;4988294;28;20042;-79
2023/07/16 05:06:17;;;;;;;3.00;1.33;;;;;;;-145.41;100.00;58600.66;4981745;28;20556;-79
2023/07/16 05:08:43;;;;;;;3.58;1.27;;;;;;;-145.41;100.00;58600.66;4996771;28;20046;-79
2023/07/16 05:11:08;;;;;;;2.67;1.20;;;;;;;-145.41;100.00;58600.66;4996948;28;20022;-79
2023/07/16 05:13:33;;;;;;;3.47;1.52;;;;;;;-145.41;100.00;58600.66;4997343;28;20037;-79
2023/07/16 05:15:58;;;;;;;4.03;1.20;;;;;;;-145.41;100.00;58600.66;4999197;28;20034;-79
2023/07/16 05:18:24;;;;;;;3.20;1.25;;;;;;;-145.41;100.00;58600.66;4999108;28;20465;-79
2023/07/16 05:20:49;;;;;;;3.45;1.52;;;;;;;-145.41;100.00;58600.66;4981944;28;20038;-79
2023/07/16 05:23:15;;;;;;;4.20;1.50;;;;;;;-145.41;100.00;58600.66;4996774;28;20042;-79
2023/07/16 05:25:48;;;;;;;2.20;1.10;;;;;;;-145.41;100.00;58600.66;4977267;28;20129;-79
2023/07/16 05:28:13;;;;;;;3.95;1.73;;;;;;;-145.41;100.00;58600.66;4998491;28;20061;-79
2023/07/16 05:30:39;;;;;;;4.53;1.52;;;;;;;-145.41;100.00;58600.66;4999887;28;20033;-79
2023/07/16 05:33:04;;;;;;;3.20;1.55;;;;;;;-145.41;100.00;58600.66;4998210;28;20326;-78
2023/07/16 05:35:29;;;;;;;4.68;1.70;;;;;;;-145.41;100.00;58600.66;4977266;28;20038;-78
2023/07/16 05:37:55;;;;;;;2.75;1.48;;;;;;;-145.41;100.00;58600.66;4996545;28;20050;-78
2023/07/16 05:40:20;;;;;;;3.70;1.77;;;;;;;-145.41;100.00;58600.66;4991469;28;20030;-78
2023/07/16 05:42:45;;;;;;;5.28;1.70;;;;;;;-145.41;100.00;58600.66;4992439;28;20050;-78
2023/07/16 05:45:11;;;;;;;5.75;1.63;;;;;;;-145.41;100.00;58600.66;4975172;28;20035;-78
2023/07/16 05:47:36;;;;;;;3.35;1.70;;;;;;;-145.41;100.00;58600.66;4994234;28;20098;-78
2023/07/16 05:50:01;;;;;;;4.38;1.73;;;;;;;-145.41;100.00;58600.66;4990590;28;20034;-78
2023/07/16 05:52:27;;;;;;;3.67;1.75;;;;;;;-145.41;100.00;58600.66;4992348;28;20145;-77
2023/07/16 05:54:52;;;;;;;2.95;1.52;;;;;;;-145.41;100.00;58600.66;4992235;28;20042;-77
2023/07/16 05:57:17;;;;;;;4.32;1.70;;;;;;;-145.41;100.00;58600.66;4992443;28;20049;-77
2023/07/16 05:59:42;;;;;;;3.88;1.80;;;;;;;-145.41;100.00;58600.66;4973677;28;20039;-77
2023/07/16 06:02:08;;;;;;;3.97;1.40;;;;;;;-145.41;100.00;58600.66;4990922;28;20041;-77
2023/07/16 06:04:33;;;;;;;2.90;1.35;;;;;;;-145.41;100.00;58600.66;4958869;28;20038;-77
2023/07/16 06:06:58;;;;;;;2.85;1.38;;;;;;;-145.41;100.00;58600.66;4995583;28;20104;-77
2023/07/16 06:09:24;;;;;;;3.92;1.63;;;;;;;-145.41;100.00;58600.66;4993766;28;20121;-77
2023/07/16 06:11:50;;;;;;;2.80;1.15;;;;;;;-145.41;100.00;58600.66;4994884;28;20058;-76
2023/07/16 06:14:15;;;;;;;2.58;1.38;;;;;;;-145.41;100.00;58600.66;4994592;28;20416;-76
2023/07/16 06:16:41;;;;;;;2.20;1.00;;;;;;;-145.41;100.00;58600.66;4992087;28;20088;-76
2023/07/16 06:19:06;;;;;;;1.90;1.20;;;;;;;-145.41;100.00;58600.66;4993632;28;20034;-76
2023/07/16 06:21:32;;;;;;;2.30;1.05;;;;;;;-145.41;100.00;58600.66;4994496;28;20037;-76
2023/07/16 06:23:57;;;;;;;2.88;1.42;;;;;;;-145.41;100.00;58600.66;4994415;28;20042;-76
2023/07/16 06:26:22;;;;;;;2.28;1.30;;;;;;;-145.41;100.00;58600.66;4994596;28;20038;-76
2023/07/16 06:28:49;;;;;;;2.40;0.93;;;;;;;-145.41;100.00;58600.66;4993526;28;20044;-76
2023/07/16 06:31:16;;;;;;;2.30;1.17;;;;;;;-145.41;100.00;58600.66;4994343;28;20118;-76
2023/07/16 06:33:41;;;;;;;2.00;1.13;;;;;;;-145.41;100.00;58600.66;4994326;28;20038;-76
2023/07/16 06:36:06;;;;;;;3.17;0.80;;;;;;;-145.41;100.00;58600.66;4976648;28;20038;-76
2023/07/16 06:38:32;;;;;;;2.17;1.10;;;;;;;-145.41;100.00;58600.66;4993615;28;20042;-76
2023/07/16 06:40:57;;;;;;;2.13;1.20;;;;;;;-145.41;100.00;58600.66;4993580;28;20062;-76
2023/07/16 06:43:23;;;;;;;2.88;1.42;;;;;;;-145.41;100.00;58600.66;4976727;28;20034;-76
2023/07/16 06:45:51;;;;;;;2.88;1.10;;;;;;;-145.41;100.00;58600.66;4992333;28;20058;-76
2023/07/16 06:48:17;;;;;;;2.60;1.17;;;;;;;-145.41;100.00;58600.66;4993882;28;20037;-75
2023/07/16 06:50:42;;;;;;;2.38;1.20;;;;;;;-145.41;100.00;58600.66;4993230;28;20039;-76
2023/07/16 06:53:07;;;;;;;1.90;1.10;;;;;;;-145.41;100.00;58600.66;4994189;28;20038;-76
2023/07/16 06:55:33;;;;;;;2.17;1.17;;;;;;;-145.41;100.00;58600.66;4993648;28;20089;-76
2023/07/16 06:58:00;;;;;;;2.55;1.00;;;;;;;-145.41;100.00;58600.66;4993707;28;20037;-76
2023/07/16 07:00:25;;;;;;;2.53;1.25;;;;;;;-145.41;100.00;58600.66;4993013;28;20026;-76
2023/07/16 07:02:50;;;;;;;2.80;1.35;;;;;;;-145.41;100.00;58600.66;4993778;28;20736;-76
2023/07/16 07:05:16;;;;;;;3.30;1.23;;;;;;;-145.41;100.00;58600.66;4994032;28;20057;-76
2023/07/16 07:07:42;;;;;;;3.90;1.15;;;;;;;-145.41;100.00;58600.66;4975612;28;20606;-76
2023/07/16 07:10:07;;;;;;;2.53;1.10;;;;;;;-145.41;100.00;58600.66;4975043;28;20089;-76
2023/07/16 07:12:37;;;;;;;3.42;1.20;;;;;;;-145.41;100.00;58600.66;4993566;28;20030;-76
2023/07/16 07:15:04;;;;;;;3.53;1.20;;;;;;;-145.41;100.00;58600.66;4975831;28;20492;-76
2023/07/16 07:17:29;;;;;;;2.50;1.30;;;;;;;-145.41;100.00;58600.66;4993424;28;20481;-76
2023/07/16 07:19:55;;;;;;;6.10;1.33;;;;;;;-145.41;100.00;58600.66;4992424;28;20078;-76
2023/07/16 07:22:20;;;;;;;3.35;1.30;;;;;;;-145.41;100.00;58600.66;4993387;28;20037;-75
2023/07/16 07:24:45;;;;;;;2.90;1.20;;;;;;;-145.41;100.00;58600.66;4993325;28;20038;-76
2023/07/16 07:27:11;;;;;;;2.55;1.30;;;;;;;-145.41;100.00;58600.66;4993335;28;20032;-76
2023/07/16 07:29:36;;;;;;;2.67;1.13;;;;;;;-145.41;100.00;58600.66;4992503;28;20030;-75
2023/07/16 07:32:01;;;;;;;3.22;1.27;;;;;;;-145.41;100.00;58600.66;4993165;28;20038;-76
2023/07/16 07:34:27;;;;;;;3.72;1.30;;;;;;;-145.41;100.00;58600.66;4993160;28;20101;-76
2023/07/16 07:36:52;;;;;;;4.90;1.27;;;;;;;-145.41;100.00;58600.66;4993885;28;20034;-76
2023/07/16 07:39:17;;;;;;;3.78;1.40;;;;;;;-145.41;100.00;58600.66;4992020;28;20527;-76
2023/07/16 07:41:43;;;;;;;2.95;1.25;;;;;;;-145.41;100.00;58600.66;4993115;28;20030;-76
2023/07/16 07:44:08;;;;;;;5.38;1.27;;;;;;;-145.41;100.00;58600.66;4992842;28;20073;-75
2023/07/16 07:46:33;;;;;;;4.93;1.23;;;;;;;-145.41;100.00;58600.66;4992825;28;20065;-75
2023/07/16 07:48:59;;;;;;;4.32;1.25;;;;;;;-145.41;100.00;58600.66;4992147;28;21002;-76
2023/07/16 07:51:25;;;;;;;2.67;1.30;;;;;;;-145.41;100.00;58600.66;4992491;28;20058;-76
2023/07/16 07:53:50;;;;;;;4.45;1.42;;;;;;;-145.41;100.00;58600.66;4992833;28;20061;-76
2023/07/16 07:56:15;;;;;;;3.15;1.20;;;;;;;-145.41;100.00;58600.66;4992517;28;20551;-76
2023/07/16 07:58:41;;;;;;;3.85;1.27;;;;;;;-145.41;100.00;58600.66;4992368;28;20599;-76
2023/07/16 08:01:07;;;;;;;5.78;1.73;;;;;;;-145.41;100.00;58600.66;4992181;28;20493;-76
2023/07/16 08:03:33;;;;;;;6.45;1.65;;;;;;;-145.41;100.00;58600.66;4992582;28;20100;-76
2023/07/16 08:05:58;;;;;;;5.03;2.08;;;;;;;-145.41;100.00;58600.66;4992489;28;20509;-76
2023/07/16 08:08:23;;;;;;;3.90;1.20;;;;;;;-145.41;100.00;58600.66;4993309;28;20034;-76
2023/07/16 08:10:49;;;;;;;2.20;1.27;;;;;;;-145.41;100.00;58600.66;4991126;28;20031;-76
2023/07/16 08:13:14;;;;;;;3.17;1.40;;;;;;;-145.41;100.00;58600.66;4992400;28;20034;-76
2023/07/16 08:15:39;;;;;;;4.07;1.52;;;;;;;-145.41;100.00;58600.66;4992288;28;20054;-76
2023/07/16 08:18:05;;;;;;;3.53;1.30;;;;;;;-145.41;100.00;58600.66;4991771;28;20074;-76
2023/07/16 08:20:30;;;;;;;5.90;1.60;;;;;;;-145.41;100.00;58600.66;4990964;28;20042;-76
2023/07/16 08:22:56;;;;;;;4.38;1.15;;;;;;;-145.41;100.00;58600.66;4974885;28;20034;-75
2023/07/16 08:25:21;;;;;;;5.22;1.40;;;;;;;-145.41;100.00;58600.66;4992188;28;20049;-76
2023/07/16 08:27:47;;;;;;;3.33;1.50;;;;;;;-145.41;100.00;58600.66;4991163;28;20148;-76
2023/07/16 08:30:13;;;;;;;3.03;1.08;;;;;;;-145.41;100.00;58600.66;4991145;28;20034;-76
2023/07/16 08:32:38;;;;;;;2.42;1.23;;;;;;;-145.41;100.00;58600.66;4991911;28;20085;-76
2023/07/16 08:35:04;;;;;;;1.60;0.90;;;;;;;-145.41;100.00;58600.66;4992116;28;20026;-75
2023/07/16 08:37:29;;;;;;;3.58;1.30;;;;;;;-145.41;100.00;58600.66;4992253;28;20112;-75
2023/07/16 08:39:55;;;;;;;3.72;1.40;;;;;;;-145.41;100.00;58600.66;4991026;28;20121;-76
2023/07/16 08:42:20;;;;;;;3.92;1.50;;;;;;;-145.41;100.00;58600.66;4991825;28;20070;-76
2023/07/16 08:44:49;;;;;;;3.75;1.08;;;;;;;-145.41;100.00;58600.66;4991392;28;20063;-76
2023/07/16 08:47:15;;;;;;;4.57;1.50;;;;;;;-145.41;100.00;58600.66;4991695;28;20034;-76
2023/07/16 08:49:40;;;;;;;5.63;1.30;;;;;;;-145.41;100.00;58600.66;4991087;28;20120;-76
2023/07/16 08:52:07;;;;;;;3.25;1.02;;;;;;;-145.41;100.00;58600.66;4974538;28;20041;-76
2023/07/16 08:54:33;;;;;;;3.60;1.48;;;;;;;-145.41;100.00;58600.66;4991517;28;20042;-76
2023/07/16 08:56:59;;;;;;;4.32;1.48;;;;;;;-145.41;100.00;58600.66;4987852;28;20068;-76
2023/07/16 08:59:26;;;;;;;3.22;1.23;;;;;;;-145.41;100.00;58600.66;4990490;28;20034;-75
2023/07/16 09:01:51;;;;;;;5.45;1.20;;;;;;;-145.41;100.00;58600.66;4991607;28;20042;-76
2023/07/16 09:04:17;;;;;;;3.50;1.20;;;;;;;-145.41;100.00;58600.66;4955560;28;20061;-76
2023/07/16 09:06:42;;;;;;;4.18;1.33;;;;;;;-145.41;100.00;58600.66;4974835;28;20030;-76
2023/07/16 09:09:08;;;;;;;4.93;1.13;;;;;;;-145.41;100.00;58600.66;4992530;28;20413;-76
2023/07/16 09:11:33;;;;;;;3.97;1.33;;;;;;;-145.41;100.00;58600.66;4973945;28;20110;-76
2023/07/16 09:14:02;;;;;;;2.72;1.10;;;;;;;-145.41;100.00;58600.66;4991407;28;20575;-75
2023/07/16 09:16:32;;;;;;;4.18;1.30;;;;;;;-145.41;100.00;58600.66;4991561;28;20100;-76
2023/07/16 09:19:05;;;;;;;4.43;1.00;;;;;;;-145.41;100.00;58600.66;4972929;28;20030;-76
2023/07/16 09:21:33;;;;;;;4.30;1.65;;;;;;;-145.41;100.00;58600.66;4990968;28;20034;-76
2023/07/16 09:23:59;;;;;;;5.65;1.75;;;;;;;-145.41;100.00;58600.66;4991358;28;20037;-76
2023/07/16 09:26:24;;;;;;;3.90;1.48;;;;;;;-145.41;100.00;58600.66;4991102;28;20034;-76
2023/07/16 09:28:49;;;;;;;3.05;1.05;;;;;;;-145.41;100.00;58600.66;4990297;28;20041;-76
2023/07/16 09:31:15;;;;;;;4.75;1.35;;;;;;;-145.41;100.00;58600.66;4991320;28;20034;-76
2023/07/16 09:33:40;;;;;;;2.72;1.00;;;;;;;-145.41;100.00;58600.66;4991426;28;20041;-76
2023/07/16 09:36:05;;;;;;;6.18;1.17;;;;;;;-145.41;100.00;58600.66;4991076;28;20053;-76
2023/07/16 09:38:34;;;;;;;4.82;1.48;;;;;;;-145.41;100.00;58600.66;4994762;28;20030;-75
2023/07/16 09:41:00;;;;;;;2.92;1.27;;;;;;;-145.41;100.00;58600.66;4976980;28;20034;-75
2023/07/16 09:43:25;;;;;;;4.07;1.10;;;;;;;-145.41;100.00;58600.66;4995299;28;20038;-76
2023/07/16 09:45:50;;;;;;;4.40;1.30;;;;;;;-145.41;100.00;58600.66;4995173;28;20034;-76
2023/07/16 09:48:16;;;;;;;3.28;1.42;;;;;;;-145.41;100.00;58600.66;4995117;28;20184;-76
2023/07/16 09:50:49;;;;;;;2.30;0.93;;;;;;;-145.41;100.00;58600.66;4993700;28;20031;-76
2023/07/16 09:53:16;;;;;;;3.40;1.00;;;;;;;-145.41;100.00;58600.66;4995066;28;20031;-76
2023/07/16 09:55:41;;;;;;;3.83;1.63;;;;;;;-145.41;100.00;58600.66;4993339;28;20428;-76
2023/07/16 09:58:09;;;;;;;3.03;1.33;;;;;;;-145.41;100.00;58600.66;4969781;28;20030;-75
2023/07/16 10:00:36;;;;;;;3.95;1.30;;;;;;;-145.41;100.00;58600.66;4994211;28;20137;-75
2023/07/16 10:03:02;;;;;;;3.47;1.10;;;;;;;-145.41;100.00;58600.66;4994775;28;20397;-76
2023/07/16 10:05:28;;;;;;;3.67;1.42;;;;;;;-145.41;100.00;58600.66;4994877;28;20069;-75
2023/07/16 10:07:58;;;;;;;3.92;1.33;;;;;;;-145.41;100.00;58600.66;4995918;28;20030;-76
2023/07/16 10:10:26;;;;;;;3.00;1.20;;;;;;;-145.41;100.00;58600.66;4992020;28;20035;-76
2023/07/16 10:13:02;;;;;;;6.22;1.10;;;;;;;-145.41;100.00;58600.66;4994654;28;20050;-76
2023/07/16 10:15:28;;;;;;;3.88;1.60;;;;;;;-145.41;100.00;58600.66;4993912;28;20073;-75
2023/07/16 10:17:54;;;;;;;4.03;1.05;;;;;;;-145.41;100.00;58600.66;4994494;28;20030;-76
2023/07/16 10:20:31;;;;;;;3.60;1.25;;;;;;;-145.41;100.00;58600.66;4993823;28;20509;-75
2023/07/16 10:22:56;;;;;;;3.33;1.25;;;;;;;-145.41;100.00;58600.66;4992835;28;20034;-76
2023/07/16 10:25:24;;;;;;;5.18;1.35;;;;;;;-145.41;100.00;58600.66;4976801;28;20045;-75
2023/07/16 10:27:51;;;;;;;3.70;1.52;;;;;;;-145.41;100.00;58600.66;4993599;28;20393;-75
2023/07/16 10:30:17;;;;;;;4.57;1.85;;;;;;;-145.41;100.00;58600.66;4993579;28;20042;-76
2023/07/16 10:32:43;;;;;;;3.25;1.08;;;;;;;-145.41;100.00;58600.66;4991737;28;20113;-75
2023/07/16 10:35:09;;;;;;;4.05;1.50;;;;;;;-145.41;100.00;58600.66;4994160;28;20038;-75
2023/07/16 10:37:36;;;;;;;4.00;1.55;;;;;;;-145.41;100.00;58600.66;4994371;28;20038;-76
2023/07/16 10:40:03;;;;;;;3.28;1.30;;;;;;;-145.41;100.00;58600.66;4993124;28;20297;-76
2023/07/16 10:42:29;;;;;;;3.80;1.52;;;;;;;-145.41;100.00;58600.66;4994092;28;20092;-76
2023/07/16 10:44:57;;;;;;;3.75;1.38;;;;;;;-145.41;100.00;58600.66;4993816;28;20057;-76
2023/07/16 10:47:30;;;;;;;4.65;1.10;;;;;;;-145.41;100.00;58600.66;4976231;28;20520;-76
2023/07/16 10:49:55;;;;;;;5.28;1.40;;;;;;;-145.41;100.00;58600.66;4992280;28;20041;-75
2023/07/16 10:52:22;;;;;;;3.83;1.15;;;;;;;-145.41;100.00;58600.66;4993825;28;20046;-75
2023/07/16 10:54:49;;;;;;;3.30;1.15;;;;;;;-145.41;100.00;58600.66;4993477;28;20034;-76
2023/07/16 10:57:16;;;;;;;3.03;1.25;;;;;;;-145.41;100.00;58600.66;4976454;28;20108;-75
2023/07/16 10:59:44;;;;;;;3.63;1.40;;;;;;;-145.41;100.00;58600.66;4993094;28;20573;-75
2023/07/16 11:02:13;;;;;;;3.38;1.13;;;;;;;-145.41;100.00;58600.66;4975933;28;20034;-75
2023/07/16 11:04:39;;;;;;;3.30;1.40;;;;;;;-145.41;100.00;58600.66;4993778;28;20096;-76